sensor_id;sensor_type;location;lat;lon;timestamp;pressure;altitude;pressure_sealevel;temperature;humidity
50057;BME280;36875;49.468;11.200;2023-04-08T00:00:33;98076.66;;;15.79;35.66
50057;BME280;36875;49.468;11.200;2023-04-08T00:02:58;98089.13;;;15.80;35.65
50057;BME280;36875;49.468;11.200;2023-04-08T00:05:23;98082.88;;;15.79;35.80
50057;BME280;36875;49.468;11.200;2023-04-08T00:07:50;98082.88;;;15.79;35.85
50057;BME280;36875;49.468;11.200;2023-04-08T00:10:16;98080.97;;;15.80;35.95
50057;BME280;36875;49.468;11.200;2023-04-08T00:12:42;98079.38;;;15.79;36.00
50057;BME280;36875;49.468;11.200;2023-04-08T00:15:08;98088.59;;;15.78;35.67
50057;BME280;36875;49.468;11.200;2023-04-08T00:17:36;98078.53;;;15.78;35.58
50057;BME280;36875;49.468;11.200;2023-04-08T00:20:02;98078.53;;;15.78;35.86
50057;BME280;36875;49.468;11.200;2023-04-08T00:22:28;98080.44;;;15.78;35.83
50057;BME280;36875;49.468;11.200;2023-04-08T00:24:56;98073.69;;;15.75;35.85
50057;BME280;36875;49.468;11.200;2023-04-08T00:27:22;98084.28;;;15.77;35.67
50057;BME280;36875;49.468;11.200;2023-04-08T00:29:49;98077.47;;;15.74;35.92
50057;BME280;36875;49.468;11.200;2023-04-08T00:32:14;98083.44;;;15.76;35.81
50057;BME280;36875;49.468;11.200;2023-04-08T00:34:40;98084.28;;;15.77;35.68
50057;BME280;36875;49.468;11.200;2023-04-08T00:37:06;98082.63;;;15.76;35.71
50057;BME280;36875;49.468;11.200;2023-04-08T00:39:31;98080.72;;;15.76;35.88
50057;BME280;36875;49.468;11.200;2023-04-08T00:41:58;98078.84;;;15.77;35.87
50057;BME280;36875;49.468;11.200;2023-04-08T00:44:24;98081.84;;;15.75;35.81
50057;BME280;36875;49.468;11.200;2023-04-08T00:46:49;98076.41;;;15.75;35.67
50057;BME280;36875;49.468;11.200;2023-04-08T00:49:15;98086.44;;;15.75;35.84
50057;BME280;36875;49.468;11.200;2023-04-08T00:51:41;98086.44;;;15.75;35.80
50057;BME280;36875;49.468;11.200;2023-04-08T00:54:07;98081.00;;;15.75;35.82
50057;BME280;36875;49.468;11.200;2023-04-08T00:56:33;98089.41;;;15.73;35.61
50057;BME280;36875;49.468;11.200;2023-04-08T00:59:00;98089.13;;;15.75;35.68
50057;BME280;36875;49.468;11.200;2023-04-08T01:01:32;98091.84;;;15.75;35.79
50057;BME280;36875;49.468;11.200;2023-04-08T01:04:05;98090.25;;;15.74;35.80
50057;BME280;36875;49.468;11.200;2023-04-08T01:06:38;98090.50;;;15.72;35.83
50057;BME280;36875;49.468;11.200;2023-04-08T01:09:09;98090.25;;;15.74;35.98
50057;BME280;36875;49.468;11.200;2023-04-08T01:11:37;98087.78;;;15.72;35.80
50057;BME280;36875;49.468;11.200;2023-04-08T01:14:08;98091.28;;;15.73;35.69
50057;BME280;36875;49.468;11.200;2023-04-08T01:16:37;98094.00;;;15.73;35.66
50057;BME280;36875;49.468;11.200;2023-04-08T01:19:07;98092.94;;;15.69;35.78
50057;BME280;36875;49.468;11.200;2023-04-08T01:21:35;98104.06;;;15.72;35.77
50057;BME280;36875;49.468;11.200;2023-04-08T01:24:07;98104.84;;;15.73;35.75
50057;BME280;36875;49.468;11.200;2023-04-08T01:26:37;98104.84;;;15.73;35.89
50057;BME280;36875;49.468;11.200;2023-04-08T01:29:04;98090.22;;;15.69;35.87
50057;BME280;36875;49.468;11.200;2023-04-08T01:31:30;98097.81;;;15.72;35.68
50057;BME280;36875;49.468;11.200;2023-04-08T01:33:56;98100.00;;;15.70;35.62
50057;BME280;36875;49.468;11.200;2023-04-08T01:36:24;98101.63;;;15.71;35.49
50057;BME280;36875;49.468;11.200;2023-04-08T01:38:50;98105.13;;;15.71;35.81
50057;BME280;36875;49.468;11.200;2023-04-08T01:41:17;98100.81;;;15.70;35.75
50057;BME280;36875;49.468;11.200;2023-04-08T01:43:45;98101.63;;;15.71;35.92
50057;BME280;36875;49.468;11.200;2023-04-08T01:46:12;98091.03;;;15.69;35.67
50057;BME280;36875;49.468;11.200;2023-04-08T01:48:39;98092.94;;;15.69;35.64
50057;BME280;36875;49.468;11.200;2023-04-08T01:51:05;98083.22;;;15.63;35.68
50057;BME280;36875;49.468;11.200;2023-04-08T01:53:31;98090.22;;;15.69;35.61
50057;BME280;36875;49.468;11.200;2023-04-08T01:56:03;98090.22;;;15.69;35.52
50057;BME280;36875;49.468;11.200;2023-04-08T01:58:35;98098.38;;;15.69;35.50
50057;BME280;36875;49.468;11.200;2023-04-08T02:01:03;98095.94;;;15.67;35.63
50057;BME280;36875;49.468;11.200;2023-04-08T02:03:30;98092.94;;;15.69;35.57
50057;BME280;36875;49.468;11.200;2023-04-08T02:05:57;98088.59;;;15.68;35.81
50057;BME280;36875;49.468;11.200;2023-04-08T02:08:23;98103.25;;;15.67;35.56
50057;BME280;36875;49.468;11.200;2023-04-08T02:10:49;98104.06;;;15.67;35.75
50057;BME280;36875;49.468;11.200;2023-04-08T02:13:14;98104.88;;;15.68;35.76
50057;BME280;36875;49.468;11.200;2023-04-08T02:15:43;98102.16;;;15.68;35.63
50057;BME280;36875;49.468;11.200;2023-04-08T02:18:15;98106.78;;;15.67;35.76
50057;BME280;36875;49.468;11.200;2023-04-08T02:20:43;98101.34;;;15.67;35.81
50057;BME280;36875;49.468;11.200;2023-04-08T02:23:14;98111.41;;;15.67;35.60
50057;BME280;36875;49.468;11.200;2023-04-08T02:25:43;98110.59;;;15.66;35.84
50057;BME280;36875;49.468;11.200;2023-04-08T02:28:10;98097.06;;;15.61;35.55
50057;BME280;36875;49.468;11.200;2023-04-08T02:30:36;98109.75;;;15.66;35.51
50057;BME280;36875;49.468;11.200;2023-04-08T02:33:06;98107.06;;;15.66;35.79
50057;BME280;36875;49.468;11.200;2023-04-08T02:35:34;98115.19;;;15.66;35.73
50057;BME280;36875;49.468;11.200;2023-04-08T02:38:00;98107.34;;;15.64;35.52
50057;BME280;36875;49.468;11.200;2023-04-08T02:40:27;98108.16;;;15.65;35.64
50057;BME280;36875;49.468;11.200;2023-04-08T02:42:53;98102.47;;;15.61;35.53
50057;BME280;36875;49.468;11.200;2023-04-08T02:45:19;98118.75;;;15.66;35.49
50057;BME280;36875;49.468;11.200;2023-04-08T02:47:45;98111.94;;;15.64;35.74
50057;BME280;36875;49.468;11.200;2023-04-08T02:50:11;98116.28;;;15.65;35.42
50057;BME280;36875;49.468;11.200;2023-04-08T02:52:38;98117.38;;;15.64;35.58
50057;BME280;36875;49.468;11.200;2023-04-08T02:55:04;98115.50;;;15.59;35.62
50057;BME280;36875;49.468;11.200;2023-04-08T02:57:34;98116.56;;;15.63;35.78
50057;BME280;36875;49.468;11.200;2023-04-08T03:00:00;98122.81;;;15.64;35.64
50057;BME280;36875;49.468;11.200;2023-04-08T03:02:25;98118.47;;;15.63;35.54
50057;BME280;36875;49.468;11.200;2023-04-08T03:04:51;98121.19;;;15.63;35.77
50057;BME280;36875;49.468;11.200;2023-04-08T03:07:16;98124.97;;;15.61;35.62
50057;BME280;36875;49.468;11.200;2023-04-08T03:09:43;98120.34;;;15.62;35.66
50057;BME280;36875;49.468;11.200;2023-04-08T03:12:08;98120.34;;;15.62;35.62
50057;BME280;36875;49.468;11.200;2023-04-08T03:14:34;98114.13;;;15.61;35.43
50057;BME280;36875;49.468;11.200;2023-04-08T03:17:00;98123.38;;;15.60;35.60
50057;BME280;36875;49.468;11.200;2023-04-08T03:19:25;98120.94;;;15.59;35.82
50057;BME280;36875;49.468;11.200;2023-04-08T03:21:51;98118.75;;;15.61;35.61
50057;BME280;36875;49.468;11.200;2023-04-08T03:24:16;98126.09;;;15.60;35.73
50057;BME280;36875;49.468;11.200;2023-04-08T03:26:43;98113.59;;;15.54;35.61
50057;BME280;36875;49.468;11.200;2023-04-08T03:29:09;98126.88;;;15.61;35.68
50057;BME280;36875;49.468;11.200;2023-04-08T03:31:34;98128.81;;;15.60;35.52
50057;BME280;36875;49.468;11.200;2023-04-08T03:34:00;98129.59;;;15.61;35.74
50057;BME280;36875;49.468;11.200;2023-04-08T03:36:25;98122.53;;;15.60;35.54
50057;BME280;36875;49.468;11.200;2023-04-08T03:38:51;98134.22;;;15.60;35.62
50057;BME280;36875;49.468;11.200;2023-04-08T03:41:17;98127.16;;;15.59;35.50
50057;BME280;36875;49.468;11.200;2023-04-08T03:43:44;98122.03;;;15.53;35.79
50057;BME280;36875;49.468;11.200;2023-04-08T03:46:10;98129.88;;;15.59;35.65
50057;BME280;36875;49.468;11.200;2023-04-08T03:48:35;98135.31;;;15.59;35.62
50057;BME280;36875;49.468;11.200;2023-04-08T03:51:01;98136.38;;;15.58;35.74
50057;BME280;36875;49.468;11.200;2023-04-08T03:53:26;98139.94;;;15.59;35.79
50057;BME280;36875;49.468;11.200;2023-04-08T03:55:53;98136.38;;;15.58;35.49
50057;BME280;36875;49.468;11.200;2023-04-08T03:58:19;98136.38;;;15.58;35.48
50057;BME280;36875;49.468;11.200;2023-04-08T04:00:47;98140.19;;;15.57;35.70
50057;BME280;36875;49.468;11.200;2023-04-08T04:03:12;98129.09;;;15.54;35.72
50057;BME280;36875;49.468;11.200;2023-04-08T04:05:39;98141.81;;;15.58;35.68
50057;BME280;36875;49.468;11.200;2023-04-08T04:08:04;98141.28;;;15.56;35.64
50057;BME280;36875;49.468;11.200;2023-04-08T04:10:30;98129.34;;;15.57;35.63
50057;BME280;36875;49.468;11.200;2023-04-08T04:12:55;98142.91;;;15.57;35.49
50057;BME280;36875;49.468;11.200;2023-04-08T04:15:21;98141.28;;;15.56;35.59
50057;BME280;36875;49.468;11.200;2023-04-08T04:17:48;98140.47;;;15.56;35.77
50057;BME280;36875;49.468;11.200;2023-04-08T04:20:17;98143.44;;;15.54;35.71
50057;BME280;36875;49.468;11.200;2023-04-08T04:22:42;98142.38;;;15.55;35.52
50057;BME280;36875;49.468;11.200;2023-04-08T04:25:08;98142.38;;;15.55;35.68
50057;BME280;36875;49.468;11.200;2023-04-08T04:27:34;98150.50;;;15.55;35.48
50057;BME280;36875;49.468;11.200;2023-04-08T04:30:01;98147.53;;;15.52;35.57
50057;BME280;36875;49.468;11.200;2023-04-08T04:32:27;98146.97;;;15.55;35.52
50057;BME280;36875;49.468;11.200;2023-04-08T04:34:53;98154.28;;;15.54;35.57
50057;BME280;36875;49.468;11.200;2023-04-08T04:37:19;98150.78;;;15.54;35.57
50057;BME280;36875;49.468;11.200;2023-04-08T04:39:45;98148.06;;;15.54;35.65
50057;BME280;36875;49.468;11.200;2023-04-08T04:42:10;98160.81;;;15.53;35.59
50057;BME280;36875;49.468;11.200;2023-04-08T04:44:36;98157.00;;;15.54;35.48
50057;BME280;36875;49.468;11.200;2023-04-08T04:47:02;98151.31;;;15.46;35.79
50057;BME280;36875;49.468;11.200;2023-04-08T04:49:27;98156.47;;;15.47;35.68
50057;BME280;36875;49.468;11.200;2023-04-08T04:51:54;98161.91;;;15.52;35.50
50057;BME280;36875;49.468;11.200;2023-04-08T04:54:19;98159.19;;;15.52;35.54
50057;BME280;36875;49.468;11.200;2023-04-08T04:56:45;98168.97;;;15.53;35.50
50057;BME280;36875;49.468;11.200;2023-04-08T04:59:11;98172.75;;;15.52;35.60
50057;BME280;36875;49.468;11.200;2023-04-08T05:01:36;98174.66;;;15.52;35.54
50057;BME280;36875;49.468;11.200;2023-04-08T05:04:02;98178.19;;;15.52;35.49
50057;BME280;36875;49.468;11.200;2023-04-08T05:06:27;98173.84;;;15.51;35.42
50057;BME280;36875;49.468;11.200;2023-04-08T05:08:54;98176.56;;;15.51;35.40
50057;BME280;36875;49.468;11.200;2023-04-08T05:11:20;98182.00;;;15.51;35.56
50057;BME280;36875;49.468;11.200;2023-04-08T05:13:46;98175.19;;;15.49;35.62
50057;BME280;36875;49.468;11.200;2023-04-08T05:16:11;98160.31;;;15.36;35.46
50057;BME280;36875;49.468;11.200;2023-04-08T05:18:37;98191.22;;;15.50;35.45
50057;BME280;36875;49.468;11.200;2023-04-08T05:21:03;98186.84;;;15.49;35.54
50057;BME280;36875;49.468;11.200;2023-04-08T05:23:28;98192.00;;;15.51;35.45
50057;BME280;36875;49.468;11.200;2023-04-08T05:25:55;98189.56;;;15.49;35.57
50057;BME280;36875;49.468;11.200;2023-04-08T05:28:21;98199.63;;;15.49;35.42
50057;BME280;36875;49.468;11.200;2023-04-08T05:30:48;98196.91;;;15.49;35.61
50057;BME280;36875;49.468;11.200;2023-04-08T05:33:13;98199.88;;;15.47;35.54
50057;BME280;36875;49.468;11.200;2023-04-08T05:35:39;98201.53;;;15.48;35.58
50057;BME280;36875;49.468;11.200;2023-04-08T05:38:04;98199.06;;;15.47;35.46
50057;BME280;36875;49.468;11.200;2023-04-08T05:40:30;98209.13;;;15.46;35.71
50057;BME280;36875;49.468;11.200;2023-04-08T05:42:57;98210.72;;;15.47;35.48
50057;BME280;36875;49.468;11.200;2023-04-08T05:45:23;98211.56;;;15.48;35.71
50057;BME280;36875;49.468;11.200;2023-04-08T05:47:49;98213.44;;;15.47;35.38
50057;BME280;36875;49.468;11.200;2023-04-08T05:50:14;98212.63;;;15.47;35.54
50057;BME280;36875;49.468;11.200;2023-04-08T05:52:43;98209.94;;;15.47;35.52
50057;BME280;36875;49.468;11.200;2023-04-08T05:55:09;98219.13;;;15.46;35.63
50057;BME280;36875;49.468;11.200;2023-04-08T05:57:35;98219.97;;;15.46;35.61
50057;BME280;36875;49.468;11.200;2023-04-08T06:00:02;98222.69;;;15.46;35.49
50057;BME280;36875;49.468;11.200;2023-04-08T06:02:28;98217.53;;;15.45;35.37
50057;BME280;36875;49.468;11.200;2023-04-08T06:04:53;98223.75;;;15.45;35.55
50057;BME280;36875;49.468;11.200;2023-04-08T06:07:20;98222.94;;;15.45;35.38
50057;BME280;36875;49.468;11.200;2023-04-08T06:09:46;98229.19;;;15.45;35.46
50057;BME280;36875;49.468;11.200;2023-04-08T06:12:11;98234.59;;;15.45;35.46
50057;BME280;36875;49.468;11.200;2023-04-08T06:14:37;98232.16;;;15.43;35.54
50057;BME280;36875;49.468;11.200;2023-04-08T06:17:04;98229.19;;;15.45;35.46
50057;BME280;36875;49.468;11.200;2023-04-08T06:19:30;98229.19;;;15.45;35.53
50057;BME280;36875;49.468;11.200;2023-04-08T06:21:55;98233.00;;;15.44;35.43
50057;BME280;36875;49.468;11.200;2023-04-08T06:24:23;98235.72;;;15.44;35.60
50057;BME280;36875;49.468;11.200;2023-04-08T06:26:49;98225.94;;;15.38;35.53
50057;BME280;36875;49.468;11.200;2023-04-08T06:29:14;98225.13;;;15.42;35.54
50057;BME280;36875;49.468;11.200;2023-04-08T06:31:40;98240.59;;;15.42;35.59
50057;BME280;36875;49.468;11.200;2023-04-08T06:34:07;98248.44;;;15.43;35.57
50057;BME280;36875;49.468;11.200;2023-04-08T06:36:32;98253.06;;;15.43;35.77
50057;BME280;36875;49.468;11.200;2023-04-08T06:38:58;98251.44;;;15.42;35.65
50057;BME280;36875;49.468;11.200;2023-04-08T06:41:24;98246.00;;;15.42;35.73
50057;BME280;36875;49.468;11.200;2023-04-08T06:43:49;98256.88;;;15.42;35.51
50057;BME280;36875;49.468;11.200;2023-04-08T06:46:15;98252.50;;;15.41;35.76
50057;BME280;36875;49.468;11.200;2023-04-08T06:48:40;98253.31;;;15.41;35.39
50057;BME280;36875;49.468;11.200;2023-04-08T06:51:07;98249.81;;;15.41;35.75
50057;BME280;36875;49.468;11.200;2023-04-08T06:53:33;98254.16;;;15.42;35.42
50057;BME280;36875;49.468;11.200;2023-04-08T06:55:58;98261.44;;;15.41;35.69
50057;BME280;36875;49.468;11.200;2023-04-08T06:58:24;98260.66;;;15.41;35.65
50057;BME280;36875;49.468;11.200;2023-04-08T07:00:50;98262.81;;;15.39;35.47
50057;BME280;36875;49.468;11.200;2023-04-08T07:03:16;98267.16;;;15.40;35.44
50057;BME280;36875;49.468;11.200;2023-04-08T07:05:41;98274.22;;;15.41;35.71
50057;BME280;36875;49.468;11.200;2023-04-08T07:08:08;98261.19;;;15.38;35.69
50057;BME280;36875;49.468;11.200;2023-04-08T07:10:34;98278.00;;;15.40;35.56
50057;BME280;36875;49.468;11.200;2023-04-08T07:13:00;98274.19;;;15.36;35.63
50057;BME280;36875;49.468;11.200;2023-04-08T07:15:25;98280.69;;;15.40;35.72
50057;BME280;36875;49.468;11.200;2023-04-08T07:17:51;98290.75;;;15.39;35.55
50057;BME280;36875;49.468;11.200;2023-04-08T07:20:17;98285.31;;;15.39;35.44
50057;BME280;36875;49.468;11.200;2023-04-08T07:22:44;98294.25;;;15.40;35.59
50057;BME280;36875;49.468;11.200;2023-04-08T07:25:11;98294.56;;;15.38;35.55
50057;BME280;36875;49.468;11.200;2023-04-08T07:27:36;98301.59;;;15.39;35.63
50057;BME280;36875;49.468;11.200;2023-04-08T07:30:02;98300.78;;;15.39;35.59
50057;BME280;36875;49.468;11.200;2023-04-08T07:32:28;98298.34;;;15.37;35.75
50057;BME280;36875;49.468;11.200;2023-04-08T07:34:53;98303.78;;;15.37;35.69
50057;BME280;36875;49.468;11.200;2023-04-08T07:37:19;98302.97;;;15.37;35.53
50057;BME280;36875;49.468;11.200;2023-04-08T07:39:45;98317.31;;;15.37;35.51
50057;BME280;36875;49.468;11.200;2023-04-08T07:42:11;98310.00;;;15.38;35.69
50057;BME280;36875;49.468;11.200;2023-04-08T07:44:37;98308.38;;;15.37;35.70
50057;BME280;36875;49.468;11.200;2023-04-08T07:47:05;98304.84;;;15.36;35.65
50057;BME280;36875;49.468;11.200;2023-04-08T07:49:31;98318.41;;;15.36;35.82
50057;BME280;36875;49.468;11.200;2023-04-08T07:51:56;98320.31;;;15.36;35.57
50057;BME280;36875;49.468;11.200;2023-04-08T07:54:22;98317.84;;;15.34;35.74
50057;BME280;36875;49.468;11.200;2023-04-08T07:56:48;98319.50;;;15.35;35.64
50057;BME280;36875;49.468;11.200;2023-04-08T07:59:15;98320.56;;;15.34;35.61
50057;BME280;36875;49.468;11.200;2023-04-08T08:01:40;98319.75;;;15.34;35.58
50057;BME280;36875;49.468;11.200;2023-04-08T08:04:06;98318.97;;;15.33;35.62
50057;BME280;36875;49.468;11.200;2023-04-08T08:06:31;98325.19;;;15.34;35.57
50057;BME280;36875;49.468;11.200;2023-04-08T08:08:57;98325.19;;;15.34;35.78
50057;BME280;36875;49.468;11.200;2023-04-08T08:11:23;98325.19;;;15.34;35.80
50057;BME280;36875;49.468;11.200;2023-04-08T08:13:49;98323.53;;;15.33;35.75
50057;BME280;36875;49.468;11.200;2023-04-08T08:16:16;98326.25;;;15.33;35.59
50057;BME280;36875;49.468;11.200;2023-04-08T08:18:41;98329.81;;;15.33;35.80
50057;BME280;36875;49.468;11.200;2023-04-08T08:21:07;98334.41;;;15.33;35.88
50057;BME280;36875;49.468;11.200;2023-04-08T08:23:32;98330.06;;;15.32;35.73
50057;BME280;36875;49.468;11.200;2023-04-08T08:25:58;98338.75;;;15.34;35.66
50057;BME280;36875;49.468;11.200;2023-04-08T08:28:24;98340.91;;;15.32;35.74
50057;BME280;36875;49.468;11.200;2023-04-08T08:30:49;98339.81;;;15.33;35.57
50057;BME280;36875;49.468;11.200;2023-04-08T08:33:17;98340.13;;;15.31;35.69
50057;BME280;36875;49.468;11.200;2023-04-08T08:35:42;98343.63;;;15.32;35.61
50057;BME280;36875;49.468;11.200;2023-04-08T08:38:08;98342.81;;;15.31;35.89
50057;BME280;36875;49.468;11.200;2023-04-08T08:40:33;98342.81;;;15.31;35.61
50057;BME280;36875;49.468;11.200;2023-04-08T08:42:59;98348.25;;;15.31;35.57
50057;BME280;36875;49.468;11.200;2023-04-08T08:45:25;98342.00;;;15.31;35.83
50057;BME280;36875;49.468;11.200;2023-04-08T08:47:51;98344.69;;;15.31;35.68
50057;BME280;36875;49.468;11.200;2023-04-08T08:50:18;98339.28;;;15.26;35.76
50057;BME280;36875;49.468;11.200;2023-04-08T08:52:47;98347.41;;;15.31;35.92
50057;BME280;36875;49.468;11.200;2023-04-08T08:55:13;98348.25;;;15.31;35.73
50057;BME280;36875;49.468;11.200;2023-04-08T08:57:38;98357.44;;;15.30;35.75
50057;BME280;36875;49.468;11.200;2023-04-08T09:00:05;98351.22;;;15.30;35.62
50057;BME280;36875;49.468;11.200;2023-04-08T09:02:31;98356.66;;;15.30;35.87
50057;BME280;36875;49.468;11.200;2023-04-08T09:04:58;98357.19;;;15.27;35.70
50057;BME280;36875;49.468;11.200;2023-04-08T09:07:26;98355.00;;;15.29;35.75
50057;BME280;36875;49.468;11.200;2023-04-08T09:09:52;98363.41;;;15.27;35.66
50057;BME280;36875;49.468;11.200;2023-04-08T09:12:18;98364.78;;;15.30;35.63
50057;BME280;36875;49.468;11.200;2023-04-08T09:14:43;98362.34;;;15.28;35.73
50057;BME280;36875;49.468;11.200;2023-04-08T09:17:09;98362.84;;;15.25;35.78
50057;BME280;36875;49.468;11.200;2023-04-08T09:19:35;98368.56;;;15.29;35.81
50057;BME280;36875;49.468;11.200;2023-04-08T09:22:04;98365.84;;;15.23;35.66
50057;BME280;36875;49.468;11.200;2023-04-08T09:24:35;98374.00;;;15.29;35.70
50057;BME280;36875;49.468;11.200;2023-04-08T09:27:01;98375.09;;;15.28;35.79
50057;BME280;36875;49.468;11.200;2023-04-08T09:29:26;98372.38;;;15.28;35.95
50057;BME280;36875;49.468;11.200;2023-04-08T09:31:53;98373.97;;;15.23;35.75
50057;BME280;36875;49.468;11.200;2023-04-08T09:34:20;98373.16;;;15.23;35.86
50057;BME280;36875;49.468;11.200;2023-04-08T09:36:47;98379.66;;;15.27;35.95
50057;BME280;36875;49.468;11.200;2023-04-08T09:39:16;98384.28;;;15.27;35.86
50057;BME280;36875;49.468;11.200;2023-04-08T09:41:44;98378.59;;;15.23;35.71
50057;BME280;36875;49.468;11.200;2023-04-08T09:44:14;98380.78;;;15.26;35.73
50057;BME280;36875;49.468;11.200;2023-04-08T09:46:55;98384.28;;;15.27;35.74
50057;BME280;36875;49.468;11.200;2023-04-08T09:49:25;98382.69;;;15.26;35.83
50057;BME280;36875;49.468;11.200;2023-04-08T09:51:53;98378.59;;;15.23;35.81
50057;BME280;36875;49.468;11.200;2023-04-08T09:54:30;98374.81;;;15.24;35.75
50057;BME280;36875;49.468;11.200;2023-04-08T09:57:00;98382.69;;;15.26;35.99
50057;BME280;36875;49.468;11.200;2023-04-08T09:59:32;98377.25;;;15.26;35.96
50057;BME280;36875;49.468;11.200;2023-04-08T10:02:02;98382.09;;;15.23;36.07
50057;BME280;36875;49.468;11.200;2023-04-08T10:04:31;98382.09;;;15.23;35.96
50057;BME280;36875;49.468;11.200;2023-04-08T10:07:03;98384.81;;;15.23;35.87
50057;BME280;36875;49.468;11.200;2023-04-08T10:09:30;98377.25;;;15.20;35.80
50057;BME280;36875;49.468;11.200;2023-04-08T10:11:58;98382.66;;;15.20;35.90
50057;BME280;36875;49.468;11.200;2023-04-08T10:14:25;98378.03;;;15.21;35.89
50057;BME280;36875;49.468;11.200;2023-04-08T10:17:23;98382.41;;;15.22;35.82
50057;BME280;36875;49.468;11.200;2023-04-08T10:19:50;98388.63;;;15.22;36.11
50057;BME280;36875;49.468;11.200;2023-04-08T10:22:47;98377.78;;;15.22;36.01
50057;BME280;36875;49.468;11.200;2023-04-08T10:25:27;98377.78;;;15.22;35.97
50057;BME280;36875;49.468;11.200;2023-04-08T10:27:56;98372.88;;;15.19;35.87
50057;BME280;36875;49.468;11.200;2023-04-08T10:30:41;98373.44;;;15.21;35.86
50057;BME280;36875;49.468;11.200;2023-04-08T10:33:11;98372.63;;;15.21;36.02
50057;BME280;36875;49.468;11.200;2023-04-08T10:35:40;98365.84;;;15.18;35.86
50057;BME280;36875;49.468;11.200;2023-04-08T10:38:07;98374.53;;;15.20;35.97
50057;BME280;36875;49.468;11.200;2023-04-08T10:40:35;98374.53;;;15.20;35.93
50057;BME280;36875;49.468;11.200;2023-04-08T10:43:04;98379.94;;;15.20;35.93
50057;BME280;36875;49.468;11.200;2023-04-08T10:45:30;98375.34;;;15.21;35.91
50057;BME280;36875;49.468;11.200;2023-04-08T10:47:55;98369.09;;;15.20;35.89
50057;BME280;36875;49.468;11.200;2023-04-08T10:50:21;98374.53;;;15.20;35.99
50057;BME280;36875;49.468;11.200;2023-04-08T10:52:50;98369.09;;;15.20;35.99
50057;BME280;36875;49.468;11.200;2023-04-08T10:55:21;98369.09;;;15.20;36.08
50057;BME280;36875;49.468;11.200;2023-04-08T10:57:47;98367.47;;;15.19;36.23
50057;BME280;36875;49.468;11.200;2023-04-08T11:00:18;98369.63;;;15.17;35.91
50057;BME280;36875;49.468;11.200;2023-04-08T11:02:44;98373.69;;;15.20;36.00
50057;BME280;36875;49.468;11.200;2023-04-08T11:05:10;98379.09;;;15.20;35.94
50057;BME280;36875;49.468;11.200;2023-04-08T11:07:39;98378.31;;;15.19;35.98
50057;BME280;36875;49.468;11.200;2023-04-08T11:10:06;98371.28;;;15.18;36.17
50057;BME280;36875;49.468;11.200;2023-04-08T11:12:32;98383.72;;;15.19;36.00
50057;BME280;36875;49.468;11.200;2023-04-08T11:14:58;98373.69;;;15.20;35.99
50057;BME280;36875;49.468;11.200;2023-04-08T11:17:25;98375.84;;;15.18;35.97
50057;BME280;36875;49.468;11.200;2023-04-08T11:19:51;98373.97;;;15.18;36.00
50057;BME280;36875;49.468;11.200;2023-04-08T11:22:17;98376.69;;;15.18;36.07
50057;BME280;36875;49.468;11.200;2023-04-08T11:24:42;98375.84;;;15.18;36.16
50057;BME280;36875;49.468;11.200;2023-04-08T11:27:09;98388.59;;;15.17;36.07
50057;BME280;36875;49.468;11.200;2023-04-08T11:29:35;98380.47;;;15.17;36.23
50057;BME280;36875;49.468;11.200;2023-04-08T11:32:02;98378.88;;;15.16;36.12
50057;BME280;36875;49.468;11.200;2023-04-08T11:34:29;98379.66;;;15.17;35.99
50057;BME280;36875;49.468;11.200;2023-04-08T11:36:55;98376.16;;;15.16;36.13
50057;BME280;36875;49.468;11.200;2023-04-08T11:39:22;98369.09;;;15.15;36.25
50057;BME280;36875;49.468;11.200;2023-04-08T11:41:48;98366.38;;;15.15;36.21
50057;BME280;36875;49.468;11.200;2023-04-08T11:44:14;98368.81;;;15.17;36.20
50057;BME280;36875;49.468;11.200;2023-04-08T11:46:40;98368.03;;;15.16;36.20
50057;BME280;36875;49.468;11.200;2023-04-08T11:49:07;98369.09;;;15.15;36.08
50057;BME280;36875;49.468;11.200;2023-04-08T11:51:52;98363.94;;;15.14;36.20
50057;BME280;36875;49.468;11.200;2023-04-08T11:54:25;98364.72;;;15.14;36.38
50057;BME280;36875;49.468;11.200;2023-04-08T11:56:51;98368.28;;;15.15;36.15
50057;BME280;36875;49.468;11.200;2023-04-08T11:59:17;98360.94;;;15.15;36.25
50057;BME280;36875;49.468;11.200;2023-04-08T12:01:43;98359.31;;;15.14;36.25
50057;BME280;36875;49.468;11.200;2023-04-08T12:04:09;98362.84;;;15.15;36.08
50057;BME280;36875;49.468;11.200;2023-04-08T12:06:37;98364.72;;;15.14;36.38
50057;BME280;36875;49.468;11.200;2023-04-08T12:09:02;98361.22;;;15.14;36.15
50057;BME280;36875;49.468;11.200;2023-04-08T12:11:28;98360.16;;;15.15;36.18
50057;BME280;36875;49.468;11.200;2023-04-08T12:13:53;98362.03;;;15.14;36.49
50057;BME280;36875;49.468;11.200;2023-04-08T12:16:19;98361.22;;;15.14;36.37
50057;BME280;36875;49.468;11.200;2023-04-08T12:18:44;98363.13;;;15.13;36.38
50057;BME280;36875;49.468;11.200;2023-04-08T12:21:11;98363.13;;;15.13;36.38
50057;BME280;36875;49.468;11.200;2023-04-08T12:23:38;98373.97;;;15.13;36.35
50057;BME280;36875;49.468;11.200;2023-04-08T12:26:03;98373.97;;;15.13;36.42
50057;BME280;36875;49.468;11.200;2023-04-08T12:28:29;98365.28;;;15.11;36.29
50057;BME280;36875;49.468;11.200;2023-04-08T12:30:54;98372.31;;;15.12;36.53
50057;BME280;36875;49.468;11.200;2023-04-08T12:33:20;98372.31;;;15.12;36.34
50057;BME280;36875;49.468;11.200;2023-04-08T12:35:46;98374.22;;;15.12;36.26
50057;BME280;36875;49.468;11.200;2023-04-08T12:38:11;98377.19;;;15.10;36.26
50057;BME280;36875;49.468;11.200;2023-04-08T12:40:38;98374.50;;;15.10;36.53
50057;BME280;36875;49.468;11.200;2023-04-08T12:43:03;98379.91;;;15.10;36.33
50057;BME280;36875;49.468;11.200;2023-04-08T12:45:29;98389.69;;;15.11;36.21
50057;BME280;36875;49.468;11.200;2023-04-08T12:47:55;98382.63;;;15.10;36.42